Estación Meteorológica Peña el Pijo (Robertgarden) [ 06/23/21 03:18:41 CEST ]

Fecha Hora Presion(HPa) Temp (°C) Humedad % Rocio (°C) Viento ( m/s) Direccion Lluvia 1Hora(mm) Lluvia 24H(mm) LLuvia Total(mm)
2016-Aug-28 01:01:18 1016.200 19.3 59 11.1         1038.07
2016-Aug-28 02:01:14 1016.100 19.6 58 11.1         1038.07
2016-Aug-28 03:01:19 1015.600 18.4 60 10.5         1038.07
2016-Aug-28 04:01:19 1015.600 19.7 57 10.9         1038.07
2016-Aug-28 05:01:16 1015.200 17.6 60 9.7         1038.07
2016-Aug-28 06:01:16 1015.000 16.1 66 9.8         1038.07
2016-Aug-28 07:01:20 1014.900 15.1 69 9.5         1038.07
2016-Aug-28 08:01:15 1015.100 14.9 72 9.9         1038.07
2016-Aug-28 09:01:15 1015.300 17.8 71 12.5         1038.07
2016-Aug-28 10:01:16 1015.400 24.4 60 16.2         1038.07
2016-Aug-28 11:01:16 1015.500 31.6 37 15.0         1038.07
2016-Aug-28 12:01:13 1015.500 34.9 30 14.8         1038.07
2016-Aug-28 13:01:15 1015.200 35.4 26 12.8         1038.07
2016-Aug-28 14:01:15 1014.800 34.7 24 10.9         1038.07
2016-Aug-28 15:01:16 1014.800 35.6 24 11.7         1038.07
2016-Aug-28 16:01:20 1014.700 36.4 23 11.8         1038.07
2016-Aug-28 17:01:13 1014.500 35.8 24 11.9         1038.07
2016-Aug-28 18:01:15 1014.600 34.8 25 11.6         1038.07
2016-Aug-28 19:01:14 1014.400 33.1 26 10.8         1038.07
2016-Aug-28 20:01:15 1014.400 30.8 30 11.2         1038.07
2016-Aug-28 21:01:16 1014.700 28.2 34 10.7         1038.07
2016-Aug-28 22:01:15 1015.500 24.9 41 10.8         1038.07
2016-Aug-28 23:01:16 1016.000 21.9 48 10.3         1038.07

Temperatura Máxima:36°    Temperatura Mínima:14°
Presión Máxima:1016.200 Hpa    Presión Mínima:1014.400 Hpa


Volver